createdAt,value
2019-05-13T00:00:44.739Z,99.90
2019-05-13T00:03:13.759Z,99.90
2019-05-13T00:05:44.399Z,99.90
2019-05-13T00:08:13.950Z,99.90
2019-05-13T00:10:43.688Z,99.90
2019-05-13T00:13:14.659Z,99.90
2019-05-13T00:15:44.353Z,99.90
2019-05-13T00:18:14.428Z,99.90
2019-05-13T00:20:44.303Z,99.90
2019-05-13T00:23:14.368Z,99.90
2019-05-13T00:25:44.466Z,99.90
2019-05-13T00:28:14.401Z,99.90
2019-05-13T00:30:44.466Z,99.90
2019-05-13T00:33:13.974Z,99.90
2019-05-13T00:35:44.250Z,99.90
2019-05-13T00:38:14.159Z,99.90
2019-05-13T00:40:44.292Z,99.90
2019-05-13T00:43:14.312Z,99.90
2019-05-13T00:45:44.478Z,99.90
2019-05-13T00:48:14.280Z,99.90
2019-05-13T00:51:03.767Z,99.90
2019-05-13T00:53:35.126Z,99.90
2019-05-13T00:56:04.050Z,99.90
2019-05-13T00:58:33.545Z,99.90
2019-05-13T01:01:03.668Z,99.90
2019-05-13T01:03:33.823Z,99.90
2019-05-13T01:06:04.201Z,99.90
2019-05-13T01:08:33.872Z,99.90
2019-05-13T01:11:04.274Z,99.90
2019-05-13T01:13:34.231Z,99.90
2019-05-13T01:16:03.731Z,99.90
2019-05-13T01:18:34.048Z,99.90
2019-05-13T01:21:04.396Z,99.90
2019-05-13T01:23:34.389Z,99.90
2019-05-13T01:26:03.880Z,99.90
2019-05-13T01:28:34.443Z,99.90
2019-05-13T01:31:04.123Z,99.90
2019-05-13T01:33:34.974Z,99.90
2019-05-13T01:36:05.198Z,99.90
2019-05-13T01:38:34.070Z,99.90
2019-05-13T01:41:04.464Z,99.90
2019-05-13T01:43:33.790Z,99.90
2019-05-13T01:46:04.373Z,99.90
2019-05-13T01:48:33.285Z,99.90
2019-05-13T01:51:03.766Z,99.90
2019-05-13T01:53:33.646Z,99.90
2019-05-13T01:56:03.916Z,99.90
2019-05-13T01:58:34.010Z,99.90
2019-05-13T02:01:05.079Z,99.90
2019-05-13T02:03:33.813Z,99.90
2019-05-13T02:06:03.821Z,99.90
2019-05-13T02:08:33.661Z,99.90
2019-05-13T02:11:04.318Z,99.90
2019-05-13T02:13:34.282Z,99.90
2019-05-13T02:16:04.168Z,99.90
2019-05-13T02:18:34.127Z,99.90
2019-05-13T02:21:05.441Z,99.90
2019-05-13T02:23:33.993Z,99.90
2019-05-13T02:26:04.419Z,99.90
2019-05-13T02:28:33.475Z,99.90
2019-05-13T02:31:02.135Z,99.90
2019-05-13T02:33:33.747Z,99.90
2019-05-13T02:36:02.930Z,99.90
2019-05-13T02:38:35.212Z,99.90
2019-05-13T02:41:05.293Z,99.90
2019-05-13T02:43:33.797Z,99.90
2019-05-13T02:46:23.162Z,99.90
2019-05-13T02:48:52.792Z,99.90
2019-05-13T02:51:23.028Z,99.90
2019-05-13T02:53:52.310Z,99.90
2019-05-13T02:56:22.676Z,99.90
2019-05-13T02:58:52.659Z,99.90
2019-05-13T03:01:22.304Z,99.90
2019-05-13T03:03:52.839Z,99.90
2019-05-13T03:06:24.086Z,99.90
2019-05-13T03:08:54.430Z,99.90
2019-05-13T03:11:22.972Z,99.90
2019-05-13T03:13:52.902Z,99.90
2019-05-13T03:16:32.657Z,99.90
2019-05-13T03:19:02.838Z,99.90
2019-05-13T03:21:32.655Z,99.90
2019-05-13T03:24:03.535Z,99.90
2019-05-13T03:26:32.231Z,99.90
2019-05-13T03:29:02.843Z,99.90
2019-05-13T03:31:36.078Z,99.90
2019-05-13T03:34:06.854Z,99.90
2019-05-13T03:36:37.496Z,99.90
2019-05-13T03:39:14.532Z,99.90
2019-05-13T03:41:42.301Z,99.90
2019-05-13T03:44:13.494Z,99.90
2019-05-13T03:46:42.567Z,99.90
2019-05-13T03:49:14.266Z,99.90
2019-05-13T03:51:43.107Z,99.90
2019-05-13T03:54:12.874Z,99.80
2019-05-13T03:56:42.716Z,99.70
2019-05-13T03:59:13.303Z,99.70
2019-05-13T04:01:42.766Z,99.40
2019-05-13T04:04:12.581Z,99.30
2019-05-13T04:06:42.945Z,99.20
2019-05-13T04:09:22.241Z,99.00
2019-05-13T04:11:42.595Z,99.20
2019-05-13T04:14:12.549Z,99.00
2019-05-13T04:16:42.827Z,98.90
2019-05-13T04:19:12.412Z,98.90
2019-05-13T04:21:42.912Z,99.00
2019-05-13T04:24:14.090Z,99.00
2019-05-13T04:26:43.393Z,98.80
2019-05-13T04:29:13.237Z,98.70
2019-05-13T04:31:42.515Z,98.80
2019-05-13T04:34:12.366Z,98.70
2019-05-13T04:36:43.018Z,98.70
2019-05-13T04:39:12.918Z,98.50
2019-05-13T04:41:42.529Z,98.40
2019-05-13T04:44:13.025Z,98.30
2019-05-13T04:46:43.436Z,98.30
2019-05-13T04:49:12.586Z,98.20
2019-05-13T04:51:42.178Z,98.30
2019-05-13T04:54:13.052Z,98.00
2019-05-13T04:56:42.233Z,97.80
2019-05-13T04:59:12.500Z,97.80
2019-05-13T05:02:03.979Z,97.10
2019-05-13T05:04:43.527Z,96.80
2019-05-13T05:07:45.128Z,96.60
2019-05-13T05:10:38.784Z,96.30
2019-05-13T05:13:12.781Z,96.10
2019-05-13T05:15:52.323Z,96.10
2019-05-13T05:18:55.243Z,95.80
2019-05-13T05:21:55.557Z,95.50
2019-05-13T05:24:31.742Z,95.40
2019-05-13T05:27:08.947Z,94.90
2019-05-13T05:29:49.016Z,94.90
2019-05-13T05:32:41.798Z,94.70
2019-05-13T05:35:45.035Z,94.70
2019-05-13T05:38:31.825Z,94.50
2019-05-13T05:41:03.046Z,94.60
2019-05-13T05:43:36.178Z,94.20
2019-05-13T05:46:04.917Z,94.10
2019-05-13T05:48:35.396Z,93.70
2019-05-13T05:51:05.431Z,93.50
2019-05-13T05:53:35.562Z,93.30
2019-05-13T05:56:04.616Z,93.40
2019-05-13T05:58:41.922Z,92.90
2019-05-13T06:01:18.490Z,92.90
2019-05-13T06:03:46.967Z,92.10
2019-05-13T06:06:15.558Z,92.10
2019-05-13T06:08:44.134Z,91.70
2019-05-13T06:11:13.806Z,91.50
2019-05-13T06:13:42.299Z,91.40
2019-05-13T06:16:12.311Z,91.00
2019-05-13T06:18:41.547Z,90.80
2019-05-13T06:21:12.177Z,90.40
2019-05-13T06:23:41.832Z,89.40
2019-05-13T06:26:12.608Z,89.30
2019-05-13T06:28:41.442Z,88.20
2019-05-13T06:31:12.249Z,88.00
2019-05-13T06:33:42.206Z,86.50
2019-05-13T06:36:11.382Z,86.50
2019-05-13T06:38:42.421Z,86.20
2019-05-13T06:41:14.326Z,86.70
2019-05-13T06:43:41.890Z,84.00
2019-05-13T06:46:12.361Z,82.80
2019-05-13T06:48:41.421Z,79.40
2019-05-13T06:51:11.636Z,76.50
2019-05-13T06:53:41.478Z,76.80
2019-05-13T06:56:12.093Z,76.60
2019-05-13T06:58:41.470Z,77.90
2019-05-13T07:01:11.553Z,78.60
2019-05-13T07:03:41.985Z,79.10
2019-05-13T07:06:12.348Z,78.20
2019-05-13T07:08:41.672Z,76.00
2019-05-13T07:11:20.342Z,72.80
2019-05-13T07:13:42.263Z,68.80
2019-05-13T07:16:11.882Z,66.20
2019-05-13T07:18:41.557Z,66.20
2019-05-13T07:21:11.896Z,66.10
2019-05-13T07:23:42.286Z,63.70
2019-05-13T07:26:12.300Z,60.10
2019-05-13T07:28:42.864Z,61.30
2019-05-13T07:31:11.628Z,59.10
2019-05-13T07:33:42.434Z,59.30
2019-05-13T07:36:12.778Z,58.90
2019-05-13T07:38:41.634Z,57.90
2019-05-13T07:41:12.051Z,57.80
2019-05-13T07:43:42.493Z,58.90
2019-05-13T07:46:12.622Z,62.10
2019-05-13T07:48:41.598Z,66.40
2019-05-13T07:51:11.970Z,67.50
2019-05-13T07:53:42.418Z,66.20
2019-05-13T07:56:12.451Z,66.90
2019-05-13T07:58:41.903Z,67.40
2019-05-13T08:01:12.300Z,67.60
2019-05-13T08:03:42.159Z,67.90
2019-05-13T08:06:11.264Z,67.00
2019-05-13T08:08:41.691Z,67.00
2019-05-13T08:11:12.685Z,66.00
2019-05-13T08:13:41.594Z,65.40
2019-05-13T08:16:12.356Z,65.00
2019-05-13T08:18:43.670Z,65.30
2019-05-13T08:21:12.343Z,66.40
2019-05-13T08:23:41.680Z,65.40
2019-05-13T08:26:12.415Z,63.70
2019-05-13T08:28:56.562Z,62.30
2019-05-13T08:31:12.027Z,62.30
2019-05-13T08:33:42.448Z,61.60
2019-05-13T08:36:12.303Z,59.40
2019-05-13T08:38:43.199Z,62.40
2019-05-13T08:41:19.088Z,61.30
2019-05-13T08:43:41.932Z,59.60
2019-05-13T08:46:12.462Z,59.60
2019-05-13T08:48:42.924Z,60.00
2019-05-13T08:51:11.626Z,58.90
2019-05-13T08:53:42.437Z,60.20
2019-05-13T08:56:12.228Z,59.60
2019-05-13T08:58:41.277Z,62.60
2019-05-13T09:01:12.441Z,58.50
2019-05-13T09:03:41.713Z,57.90
2019-05-13T09:06:11.673Z,57.10
2019-05-13T09:08:42.494Z,57.70
2019-05-13T09:11:12.065Z,58.70
2019-05-13T09:13:42.278Z,57.60
2019-05-13T09:16:13.347Z,55.20
2019-05-13T09:18:42.625Z,56.90
2019-05-13T09:21:11.754Z,57.50
2019-05-13T09:23:41.372Z,58.80
2019-05-13T09:26:11.938Z,57.80
2019-05-13T09:28:41.683Z,55.30
2019-05-13T09:31:12.585Z,53.90
2019-05-13T09:33:41.791Z,53.30
2019-05-13T09:36:12.544Z,52.90
2019-05-13T09:38:41.872Z,49.30
2019-05-13T09:41:12.307Z,49.30
2019-05-13T09:43:41.943Z,51.30
2019-05-13T09:46:11.859Z,51.40
2019-05-13T09:48:42.436Z,50.40
2019-05-13T09:51:12.370Z,49.40
2019-05-13T09:53:41.683Z,47.70
2019-05-13T09:56:11.822Z,49.40
2019-05-13T09:58:42.030Z,51.70
2019-05-13T10:01:12.343Z,50.70
2019-05-13T10:03:53.729Z,52.70
2019-05-13T10:06:12.712Z,52.30
2019-05-13T10:08:41.899Z,51.80
2019-05-13T10:11:12.345Z,51.30
2019-05-13T10:13:40.839Z,51.60
2019-05-13T10:16:12.247Z,52.90
2019-05-13T10:18:41.716Z,50.00
2019-05-13T10:21:09.669Z,42.90
2019-05-13T10:23:38.291Z,43.60
2019-05-13T10:26:12.548Z,43.90
2019-05-13T10:28:42.392Z,40.70
2019-05-13T10:31:11.969Z,38.90
2019-05-13T10:33:41.945Z,37.40
2019-05-13T10:36:12.151Z,38.10
2019-05-13T10:38:44.125Z,37.60
2019-05-13T10:41:12.690Z,38.90
2019-05-13T10:43:44.212Z,36.50
2019-05-13T10:46:12.733Z,34.30
2019-05-13T10:48:41.801Z,33.40
2019-05-13T10:51:17.420Z,34.60
2019-05-13T10:53:45.926Z,34.30
2019-05-13T10:56:14.459Z,31.20
2019-05-13T10:58:43.302Z,31.60
2019-05-13T11:01:11.867Z,32.60
2019-05-13T11:03:42.693Z,33.50
2019-05-13T11:06:11.723Z,33.40
2019-05-13T11:08:42.314Z,32.20
2019-05-13T11:11:13.003Z,33.30
2019-05-13T11:13:54.931Z,32.80
2019-05-13T11:16:14.212Z,32.70
2019-05-13T11:18:42.766Z,33.30
2019-05-13T11:21:13.089Z,34.40
2019-05-13T11:23:42.937Z,34.30
2019-05-13T11:26:14.196Z,34.60
2019-05-13T11:28:43.069Z,33.10
2019-05-13T11:31:11.651Z,31.70
2019-05-13T11:33:42.263Z,31.10
2019-05-13T11:36:12.848Z,31.50
2019-05-13T11:38:43.279Z,31.00
2019-05-13T11:41:11.866Z,30.30
2019-05-13T11:43:41.364Z,30.90
2019-05-13T11:46:10.143Z,31.00
2019-05-13T11:48:38.655Z,30.00
2019-05-13T11:51:07.146Z,30.00
2019-05-13T11:53:37.584Z,29.80
2019-05-13T11:56:06.822Z,29.50
2019-05-13T11:58:35.313Z,29.10
2019-05-13T12:01:05.951Z,29.30
2019-05-13T12:03:34.484Z,28.80
2019-05-13T12:06:03.003Z,28.50
2019-05-13T12:08:34.770Z,29.10
2019-05-13T12:11:14.046Z,28.40
2019-05-13T12:13:42.636Z,27.60
2019-05-13T12:16:12.818Z,28.20
2019-05-13T12:18:43.742Z,28.10
2019-05-13T12:21:12.399Z,27.60
2019-05-13T12:23:42.796Z,27.80
2019-05-13T12:26:12.874Z,28.70
2019-05-13T12:28:42.139Z,28.90
2019-05-13T12:31:12.185Z,28.60
2019-05-13T12:33:43.978Z,27.80
2019-05-13T12:36:17.304Z,27.40
2019-05-13T12:38:44.242Z,27.50
2019-05-13T12:41:12.794Z,28.40
2019-05-13T12:43:42.559Z,28.30
2019-05-13T12:46:12.517Z,27.50
2019-05-13T12:48:42.674Z,27.40
2019-05-13T12:51:13.207Z,26.10
2019-05-13T12:53:43.523Z,24.70
2019-05-13T12:56:12.565Z,25.30
2019-05-13T12:58:41.309Z,25.70
2019-05-13T13:01:13.127Z,26.10
2019-05-13T13:03:41.757Z,26.00
2019-05-13T13:06:30.016Z,25.20
2019-05-13T13:08:48.375Z,25.10
2019-05-13T13:11:10.727Z,25.00
2019-05-13T13:13:58.284Z,25.30
2019-05-13T13:16:12.446Z,25.50
2019-05-13T13:18:43.224Z,25.50
2019-05-13T13:21:14.485Z,26.10
2019-05-13T13:23:42.674Z,27.20
2019-05-13T13:26:15.645Z,27.60
2019-05-13T13:28:43.349Z,26.80
2019-05-13T13:31:12.928Z,26.50
2019-05-13T13:33:44.358Z,27.80
2019-05-13T13:36:15.865Z,28.30
2019-05-13T13:38:43.882Z,29.20
2019-05-13T13:41:21.832Z,29.50
2019-05-13T13:43:43.083Z,28.40
2019-05-13T13:46:32.305Z,29.40
2019-05-13T13:48:44.659Z,28.30
2019-05-13T13:51:14.417Z,28.70
2019-05-13T13:53:44.431Z,29.10
2019-05-13T13:56:14.985Z,28.70
2019-05-13T13:58:44.311Z,27.80
2019-05-13T14:01:19.775Z,27.60
2019-05-13T14:03:45.938Z,27.80
2019-05-13T14:06:13.614Z,28.20
2019-05-13T14:08:42.021Z,29.00
2019-05-13T14:11:11.636Z,28.90
2019-05-13T14:13:42.507Z,29.60
2019-05-13T14:16:24.800Z,30.10
2019-05-13T14:18:42.107Z,30.10
2019-05-13T14:21:10.747Z,29.60
2019-05-13T14:23:39.559Z,29.40
2019-05-13T14:26:08.067Z,29.80
2019-05-13T14:28:37.669Z,30.50
2019-05-13T14:31:06.200Z,31.50
2019-05-13T14:33:35.725Z,32.30
2019-05-13T14:36:04.566Z,33.10
2019-05-13T14:38:33.450Z,34.70
2019-05-13T14:41:03.392Z,35.50
2019-05-13T14:43:32.262Z,36.50
2019-05-13T14:46:02.349Z,36.90
2019-05-13T14:48:32.892Z,37.30
2019-05-13T14:51:02.073Z,38.00
2019-05-13T14:53:32.117Z,37.60
2019-05-13T14:56:03.096Z,37.80
2019-05-13T14:58:32.436Z,37.00
2019-05-13T15:01:14.770Z,37.40
2019-05-13T15:03:32.590Z,37.10
2019-05-13T15:06:01.687Z,37.10
2019-05-13T15:08:32.860Z,37.70
2019-05-13T15:11:01.971Z,37.20
2019-05-13T15:13:32.016Z,38.00
2019-05-13T15:16:00.879Z,37.80
2019-05-13T15:18:29.404Z,36.10
2019-05-13T15:21:01.358Z,36.80
2019-05-13T15:23:31.455Z,37.30
2019-05-13T15:25:59.232Z,37.50
2019-05-13T15:28:27.809Z,37.90
2019-05-13T15:30:56.321Z,38.60
2019-05-13T15:33:24.896Z,37.40
2019-05-13T15:35:53.717Z,37.60
2019-05-13T15:38:22.358Z,37.60
2019-05-13T15:40:52.164Z,37.00
2019-05-13T15:43:22.410Z,37.10
2019-05-13T15:45:51.455Z,37.30
2019-05-13T15:48:22.227Z,37.60
2019-05-13T15:50:51.337Z,37.70
2019-05-13T15:53:21.400Z,38.30
2019-05-13T15:55:51.862Z,39.20
2019-05-13T15:58:37.693Z,39.70
2019-05-13T16:00:52.376Z,39.90
2019-05-13T16:03:20.918Z,39.40
2019-05-13T16:05:51.512Z,39.10
2019-05-13T16:08:19.635Z,38.80
2019-05-13T16:10:48.127Z,38.00
2019-05-13T16:13:16.713Z,37.50
2019-05-13T16:15:45.231Z,37.30
2019-05-13T16:18:23.471Z,37.00
2019-05-13T16:20:52.080Z,37.70
2019-05-13T16:23:21.243Z,38.10
2019-05-13T16:25:51.886Z,38.70
2019-05-13T16:28:19.943Z,39.10
2019-05-13T16:30:48.414Z,39.50
2019-05-13T16:33:16.934Z,39.20
2019-05-13T16:35:45.603Z,36.80
2019-05-13T16:38:14.023Z,36.00
2019-05-13T16:40:42.553Z,36.70
2019-05-13T16:43:12.817Z,36.00
2019-05-13T16:45:42.347Z,35.30
2019-05-13T16:48:12.320Z,35.40
2019-05-13T16:50:41.877Z,35.20
2019-05-13T16:53:10.490Z,35.00
2019-05-13T16:55:38.951Z,34.40
2019-05-13T16:58:07.408Z,34.40
2019-05-13T17:00:36.003Z,34.40
2019-05-13T17:03:04.795Z,34.50
2019-05-13T17:05:33.328Z,34.20
2019-05-13T17:08:02.206Z,34.20
2019-05-13T17:10:31.591Z,34.30
2019-05-13T17:13:02.903Z,33.70
2019-05-13T17:15:31.161Z,33.70
2019-05-13T17:18:09.206Z,33.70
2019-05-13T17:20:32.039Z,33.90
2019-05-13T17:23:01.823Z,34.00
2019-05-13T17:25:30.495Z,34.50
2019-05-13T17:27:58.951Z,35.30
2019-05-13T17:30:27.387Z,34.40
2019-05-13T17:32:55.842Z,33.90
2019-05-13T17:35:24.349Z,34.20
2019-05-13T17:37:53.225Z,34.30
2019-05-13T17:40:22.523Z,34.20
2019-05-13T17:42:51.120Z,34.80
2019-05-13T17:45:21.820Z,34.80
2019-05-13T17:47:51.834Z,34.90
2019-05-13T17:50:22.247Z,35.00
2019-05-13T17:52:52.301Z,34.80
2019-05-13T17:55:22.264Z,35.10
2019-05-13T17:57:50.978Z,35.40
2019-05-13T18:00:21.595Z,35.40
2019-05-13T18:02:51.425Z,35.60
2019-05-13T18:05:22.346Z,35.70
2019-05-13T18:07:51.292Z,36.00
2019-05-13T18:10:22.398Z,36.20
2019-05-13T18:12:51.084Z,36.00
2019-05-13T18:15:25.847Z,36.40
2019-05-13T18:17:54.514Z,36.80
2019-05-13T18:20:23.106Z,37.10
2019-05-13T18:22:52.378Z,38.50
2019-05-13T18:25:22.304Z,38.00
2019-05-13T18:27:52.135Z,39.00
2019-05-13T18:30:21.298Z,39.30
2019-05-13T18:32:51.691Z,40.60
2019-05-13T18:35:21.948Z,40.90
2019-05-13T18:37:50.311Z,42.00
2019-05-13T18:40:19.274Z,42.90
2019-05-13T18:42:47.823Z,43.00
2019-05-13T18:45:16.764Z,43.20
2019-05-13T18:47:45.247Z,45.40
2019-05-13T18:50:13.954Z,44.10
2019-05-13T18:52:42.483Z,43.50
2019-05-13T18:55:12.474Z,44.00
2019-05-13T18:57:41.281Z,44.60
2019-05-13T19:00:11.209Z,47.60
2019-05-13T19:02:41.500Z,48.40
2019-05-13T19:05:11.930Z,47.70
2019-05-13T19:07:41.796Z,48.00
2019-05-13T19:10:11.477Z,49.50
2019-05-13T19:12:42.045Z,52.70
2019-05-13T19:15:11.338Z,54.80
2019-05-13T19:17:41.556Z,56.10
2019-05-13T19:20:11.568Z,57.40
2019-05-13T19:22:41.268Z,58.00
2019-05-13T19:25:11.943Z,58.10
2019-05-13T19:27:41.375Z,58.70
2019-05-13T19:30:12.184Z,60.70
2019-05-13T19:32:41.660Z,65.40
2019-05-13T19:35:11.698Z,66.80
2019-05-13T19:37:42.612Z,67.80
2019-05-13T19:40:13.042Z,71.80
2019-05-13T19:42:41.990Z,73.40
2019-05-13T19:45:11.156Z,69.20
2019-05-13T19:47:41.880Z,69.10
2019-05-13T19:50:10.171Z,69.80
2019-05-13T19:52:38.671Z,69.70
2019-05-13T19:55:07.235Z,70.30
2019-05-13T19:57:35.703Z,69.90
2019-05-13T20:00:10.603Z,72.50
2019-05-13T20:02:37.498Z,74.30
2019-05-13T20:05:07.053Z,75.60
2019-05-13T20:07:35.643Z,75.90
2019-05-13T20:10:06.652Z,75.00
2019-05-13T20:12:37.788Z,75.50
2019-05-13T20:15:06.776Z,78.40
2019-05-13T20:17:35.485Z,79.30
2019-05-13T20:20:05.044Z,82.60
2019-05-13T20:22:33.511Z,82.90
2019-05-13T20:25:01.954Z,81.90
2019-05-13T20:27:31.703Z,82.40
2019-05-13T20:30:01.621Z,82.60
2019-05-13T20:32:30.320Z,82.80
2019-05-13T20:34:58.830Z,82.20
2019-05-13T20:37:27.410Z,82.10
2019-05-13T20:39:55.930Z,81.30
2019-05-13T20:42:24.454Z,83.50
2019-05-13T20:44:52.913Z,85.20
2019-05-13T20:47:21.485Z,86.10
2019-05-13T20:49:59.061Z,85.00
2019-05-13T20:52:22.214Z,82.60
2019-05-13T20:54:51.138Z,80.60
2019-05-13T20:57:25.926Z,82.60
2019-05-13T20:59:53.136Z,81.80
2019-05-13T21:02:22.229Z,80.10
2019-05-13T21:04:52.480Z,84.40
2019-05-13T21:07:21.730Z,84.40
2019-05-13T21:09:51.264Z,82.30
2019-05-13T21:12:21.881Z,81.00
2019-05-13T21:14:51.217Z,80.60
2019-05-13T21:17:21.429Z,80.50
2019-05-13T21:19:52.682Z,80.60
2019-05-13T21:22:21.199Z,78.50
2019-05-13T21:24:51.491Z,79.30
2019-05-13T21:27:20.073Z,79.60
2019-05-13T21:29:48.607Z,79.60
2019-05-13T21:32:17.731Z,77.30
2019-05-13T21:34:46.342Z,76.40
2019-05-13T21:37:14.781Z,76.60
2019-05-13T21:39:43.202Z,75.50
2019-05-13T21:42:11.724Z,76.40
2019-05-13T21:44:42.010Z,78.10
2019-05-13T21:47:11.434Z,77.40
2019-05-13T21:49:59.744Z,78.40
2019-05-13T21:52:32.574Z,77.80
2019-05-13T21:55:01.953Z,79.50
2019-05-13T21:57:32.937Z,77.90
2019-05-13T22:00:02.062Z,78.90
2019-05-13T22:02:31.723Z,79.30
2019-05-13T22:05:01.044Z,78.70
2019-05-13T22:07:31.499Z,80.70
2019-05-13T22:10:01.985Z,79.70
2019-05-13T22:12:32.108Z,81.50
2019-05-13T22:15:01.000Z,82.20
2019-05-13T22:17:31.556Z,81.50
2019-05-13T22:20:01.768Z,82.90
2019-05-13T22:22:32.008Z,82.70
2019-05-13T22:25:01.925Z,81.40
2019-05-13T22:27:30.303Z,81.10
2019-05-13T22:29:58.714Z,80.90
2019-05-13T22:32:27.200Z,83.00
2019-05-13T22:34:55.773Z,85.60
2019-05-13T22:37:24.376Z,86.10
2019-05-13T22:39:52.781Z,83.90
2019-05-13T22:42:21.644Z,82.90
2019-05-13T22:44:52.258Z,81.40
2019-05-13T22:47:21.965Z,82.30
2019-05-13T22:49:50.564Z,81.90
2019-05-13T22:52:19.009Z,82.10
2019-05-13T22:54:47.509Z,84.20
2019-05-13T22:57:15.994Z,84.00
2019-05-13T22:59:45.695Z,82.00
2019-05-13T23:02:14.119Z,82.20
2019-05-13T23:04:44.779Z,82.80
2019-05-13T23:07:13.210Z,85.40
2019-05-13T23:09:41.863Z,88.90
2019-05-13T23:12:12.318Z,85.30
2019-05-13T23:14:41.437Z,86.30
2019-05-13T23:17:12.292Z,84.70
2019-05-13T23:19:41.759Z,85.80
2019-05-13T23:22:12.088Z,86.00
2019-05-13T23:24:41.783Z,90.00
2019-05-13T23:27:11.081Z,86.90
2019-05-13T23:29:41.227Z,85.70
2019-05-13T23:32:11.947Z,87.40
2019-05-13T23:34:42.068Z,85.40
2019-05-13T23:37:11.409Z,86.20
2019-05-13T23:39:41.656Z,84.60
2019-05-13T23:42:12.258Z,84.40
2019-05-13T23:44:41.391Z,84.30
2019-05-13T23:47:11.493Z,85.00
2019-05-13T23:49:42.239Z,83.60
2019-05-13T23:52:11.665Z,86.00
2019-05-13T23:54:42.385Z,85.60
2019-05-13T23:57:11.751Z,84.30
2019-05-13T23:59:42.237Z,87.50
